Time;durP1;ratioP1;P1;durP2;ratioP2;P2;SDS_P1;SDS_P2;PMS_P1;PMS_P2;Temp;Humidity;BMP_temperature;BMP_pressure;BME280_temperature;BME280_humidity;BME280_pressure;Samples;Min_cycle;Max_cycle;Signal;HPM_P1;HPM_P2
2022/11/17 00:00:16;;;;;;;9.57;8.57;;;4.10;99.90;;;;;;5185282;28;20182;-49
2022/11/17 00:02:50;;;;;;;9.63;8.70;;;4.10;99.90;;;;;;5186412;28;20227;-46
2022/11/17 00:05:21;;;;;;;12.50;8.33;;;4.10;99.90;;;;;;5182921;28;20432;-46
2022/11/17 00:07:51;;;;;;;11.97;8.73;;;4.10;99.90;;;;;;5180472;28;20923;-47
2022/11/17 00:10:22;;;;;;;14.97;8.40;;;4.10;99.90;;;;;;5177861;28;20188;-47
2022/11/17 00:15:43;;;;;;;12.50;8.50;;;4.10;99.90;;;;;;5180542;28;20186;-46
2022/11/17 00:21:20;;;;;;;11.60;9.13;;;4.00;99.90;;;;;;5188800;28;20486;-47
2022/11/17 00:23:50;;;;;;;12.53;10.17;;;3.90;99.90;;;;;;5173611;28;20424;-48
2022/11/17 00:26:32;;;;;;;13.60;10.13;;;3.80;99.90;;;;;;5193479;28;20926;-47
2022/11/17 00:29:04;;;;;;;11.60;9.93;;;3.80;99.90;;;;;;5190648;28;20334;-46
2022/11/17 00:34:24;;;;;;;11.97;8.93;;;3.80;99.90;;;;;;5189846;28;20500;-48
2022/11/17 00:36:55;;;;;;;10.37;8.80;;;3.80;99.90;;;;;;5182565;28;20568;-46
2022/11/17 00:39:26;;;;;;;21.03;9.80;;;3.80;99.90;;;;;;5188610;28;20188;-46
2022/11/17 00:41:57;;;;;;;13.53;10.20;;;3.80;99.90;;;;;;5190358;28;20439;-46
2022/11/17 00:44:28;;;;;;;11.67;9.33;;;3.80;99.90;;;;;;5189357;28;20204;-46
2022/11/17 00:46:59;;;;;;;9.80;8.80;;;3.70;99.90;;;;;;5191854;28;20939;-47
2022/11/17 00:49:29;;;;;;;11.10;9.23;;;3.70;99.90;;;;;;5189510;28;20477;-47
2022/11/17 00:52:00;;;;;;;13.27;9.10;;;3.70;99.90;;;;;;5179411;28;20221;-49
2022/11/17 00:54:31;;;;;;;13.37;9.10;;;3.70;99.90;;;;;;5188204;28;20181;-46
2022/11/17 00:57:02;;;;;;;10.27;8.80;;;3.70;99.90;;;;;;5191430;28;20200;-46
2022/11/17 00:59:32;;;;;;;11.13;8.57;;;3.70;99.90;;;;;;5193540;28;20187;-47
2022/11/17 01:02:03;;;;;;;10.37;7.67;;;3.70;99.90;;;;;;5185665;28;20209;-48
2022/11/17 01:04:34;;;;;;;11.47;9.60;;;3.70;99.90;;;;;;5193711;28;20276;-46
2022/11/17 01:07:04;;;;;;;11.57;9.03;;;3.70;99.90;;;;;;5190033;28;20191;-50
2022/11/17 01:09:35;;;;;;;11.43;9.67;;;3.80;99.90;;;;;;5189061;28;20558;-49
2022/11/17 01:12:06;;;;;;;9.90;8.50;;;3.70;99.90;;;;;;5184755;28;20212;-46
2022/11/17 01:14:37;;;;;;;10.63;9.07;;;3.70;99.90;;;;;;5193992;28;20219;-46
2022/11/17 01:17:07;;;;;;;9.10;7.70;;;3.70;99.90;;;;;;5192018;28;20292;-46
2022/11/17 01:19:38;;;;;;;11.90;9.23;;;3.60;99.90;;;;;;5188629;28;20230;-46
2022/11/17 01:22:09;;;;;;;10.03;8.70;;;3.60;99.90;;;;;;5189396;28;20212;-48
2022/11/17 01:24:39;;;;;;;11.73;9.10;;;3.60;99.90;;;;;;5190563;28;20181;-46
2022/11/17 01:27:10;;;;;;;10.40;9.30;;;3.60;99.90;;;;;;5190472;28;20192;-46
2022/11/17 01:29:41;;;;;;;8.93;7.73;;;3.60;99.90;;;;;;5191891;28;20247;-46
2022/11/17 01:32:12;;;;;;;12.30;9.23;;;3.60;99.90;;;;;;5189967;28;20208;-47
2022/11/17 01:34:42;;;;;;;8.70;8.00;;;3.60;99.90;;;;;;5189901;28;20180;-48
2022/11/17 01:37:19;;;;;;;9.07;7.83;;;3.60;99.90;;;;;;5189008;28;20239;-46
2022/11/17 01:39:50;;;;;;;9.73;8.47;;;3.60;99.90;;;;;;5187247;28;20199;-49
2022/11/17 01:42:23;;;;;;;11.77;9.77;;;3.60;99.90;;;;;;5186049;28;20448;-46
2022/11/17 01:45:19;;;;;;;12.80;8.23;;;3.60;99.90;;;;;;5177864;28;20515;-46
2022/11/17 01:48:03;;;;;;;10.30;8.37;;;3.60;99.90;;;;;;5182451;28;20972;-46
2022/11/17 01:50:36;;;;;;;8.83;7.90;;;3.50;99.90;;;;;;5182567;28;20427;-46
2022/11/17 01:53:16;;;;;;;9.10;8.07;;;3.60;99.90;;;;;;5182477;28;20804;-49
2022/11/17 01:55:55;;;;;;;9.30;7.83;;;3.60;99.90;;;;;;5183365;28;20842;-47
2022/11/17 01:58:36;;;;;;;10.07;8.73;;;3.60;99.90;;;;;;5188527;28;20445;-46
2022/11/17 02:01:07;;;;;;;7.90;7.07;;;3.60;99.90;;;;;;5188165;28;20516;-46
2022/11/17 02:03:39;;;;;;;17.07;8.53;;;3.60;99.90;;;;;;5185736;28;20467;-50
2022/11/17 02:06:34;;;;;;;12.53;9.30;;;3.50;99.90;;;;;;5187233;28;20191;-46
2022/11/17 02:09:05;;;;;;;9.30;8.50;;;3.50;99.90;;;;;;5187195;28;20419;-51
2022/11/17 02:11:35;;;;;;;9.30;8.30;;;3.50;99.90;;;;;;5192163;28;20443;-48
2022/11/17 02:14:07;;;;;;;8.57;7.80;;;3.50;99.90;;;;;;5174516;28;20332;-46
2022/11/17 02:16:37;;;;;;;11.87;8.10;;;3.50;99.90;;;;;;5182276;28;20223;-46
2022/11/17 02:19:10;;;;;;;16.83;7.90;;;3.50;99.90;;;;;;5180921;28;20436;-46
2022/11/17 02:22:20;;;;;;;14.10;8.90;;;3.40;99.90;;;;;;5177392;28;20750;-45
2022/11/17 02:25:00;;;;;;;10.90;8.43;;;3.50;99.90;;;;;;5187718;28;20504;-46
2022/11/17 02:27:47;;;;;;;11.63;8.20;;;3.40;99.90;;;;;;5184852;28;20440;-46
2022/11/17 02:30:20;;;;;;;9.77;8.13;;;3.50;99.90;;;;;;5176166;28;20423;-45
2022/11/17 02:32:59;;;;;;;9.30;7.80;;;3.50;99.90;;;;;;5188190;28;20447;-46
2022/11/17 02:36:11;;;;;;;10.67;9.60;;;3.50;99.90;;;;;;5187544;28;20439;-47
2022/11/17 02:38:58;;;;;;;10.47;8.67;;;3.50;99.90;;;;;;5188641;28;21030;-46
2022/11/17 02:41:36;;;;;;;14.50;8.73;;;3.50;99.90;;;;;;5188796;28;20508;-47
2022/11/17 02:44:07;;;;;;;15.30;9.23;;;3.50;99.90;;;;;;5187073;28;20426;-46
2022/11/17 02:46:45;;;;;;;12.00;9.17;;;3.40;99.90;;;;;;5189492;28;20442;-47
2022/11/17 02:49:23;;;;;;;9.73;8.80;;;3.40;99.90;;;;;;5182391;28;20256;-46
2022/11/17 02:51:57;;;;;;;11.43;9.43;;;3.40;99.90;;;;;;5185194;28;21039;-48
2022/11/17 02:54:30;;;;;;;10.80;9.60;;;3.40;99.90;;;;;;5186395;28;20939;-47
2022/11/17 02:57:01;;;;;;;9.67;8.67;;;3.40;99.90;;;;;;5178454;28;20485;-48
2022/11/17 02:59:40;;;;;;;14.57;9.33;;;3.40;99.90;;;;;;5183560;28;20531;-47
2022/11/17 03:02:27;;;;;;;11.50;9.00;;;3.40;99.90;;;;;;5169357;28;20196;-47
2022/11/17 03:05:06;;;;;;;10.60;8.60;;;3.40;99.90;;;;;;5178247;28;20454;-51
2022/11/17 03:07:55;;;;;;;9.43;7.93;;;3.40;99.90;;;;;;5180458;28;20500;-48
2022/11/17 03:10:49;;;;;;;10.93;8.53;;;3.40;99.90;;;;;;5176371;28;20501;-48
2022/11/17 03:13:29;;;;;;;12.17;8.60;;;3.40;99.90;;;;;;5183590;28;20451;-48
2022/11/17 03:16:05;;;;;;;11.27;8.37;;;3.40;99.90;;;;;;5187478;28;20914;-46
2022/11/17 03:19:02;;;;;;;10.87;8.47;;;3.40;99.90;;;;;;5175417;28;20987;-47
2022/11/17 03:21:58;;;;;;;9.23;8.27;;;3.40;99.90;;;;;;5184077;28;20467;-46
2022/11/17 03:24:33;;;;;;;10.67;8.13;;;3.40;99.90;;;;;;5178514;28;20462;-46
2022/11/17 03:27:19;;;;;;;11.10;9.00;;;3.40;99.90;;;;;;5185460;28;20419;-48
2022/11/17 03:29:55;;;;;;;10.83;8.30;;;3.40;99.90;;;;;;5181300;28;20427;-48
2022/11/17 03:32:30;;;;;;;9.60;8.60;;;3.40;99.90;;;;;;5183366;28;20461;-45
2022/11/17 03:35:07;;;;;;;8.57;7.73;;;3.40;99.90;;;;;;5178326;28;20435;-47
2022/11/17 03:37:42;;;;;;;11.70;8.97;;;3.40;99.90;;;;;;5191227;28;20462;-46
2022/11/17 03:40:18;;;;;;;11.10;8.77;;;3.40;99.90;;;;;;5189317;28;20947;-47
2022/11/17 03:42:52;;;;;;;10.80;8.30;;;3.40;99.90;;;;;;5186777;28;20509;-46
2022/11/17 03:45:36;;;;;;;14.10;8.90;;;3.40;99.90;;;;;;5189251;28;20411;-50
2022/11/17 03:48:19;;;;;;;9.90;8.63;;;3.40;99.90;;;;;;5184783;28;20488;-47
2022/11/17 03:51:03;;;;;;;9.43;7.77;;;3.40;99.90;;;;;;5166799;28;20435;-47
2022/11/17 03:53:35;;;;;;;11.60;9.00;;;3.40;99.90;;;;;;5179678;28;20839;-46
2022/11/17 03:56:34;;;;;;;9.43;8.43;;;3.40;99.90;;;;;;5188167;28;20461;-46
2022/11/17 03:59:16;;;;;;;10.67;9.40;;;3.40;99.90;;;;;;5187852;28;20431;-46
2022/11/17 04:01:46;;;;;;;10.50;8.43;;;3.40;99.90;;;;;;5181362;28;20448;-45
2022/11/17 04:04:20;;;;;;;11.30;8.70;;;3.40;99.90;;;;;;5181027;28;20440;-47
2022/11/17 04:06:54;;;;;;;11.00;8.50;;;3.40;99.90;;;;;;5183036;28;20272;-46
2022/11/17 04:09:24;;;;;;;10.33;8.23;;;3.40;99.90;;;;;;5190377;28;20435;-52
2022/11/17 04:17:53;;;;;;;12.50;9.13;;;3.40;99.90;;;;;;5141701;28;20472;-49
2022/11/17 04:20:24;;;;;;;11.83;9.20;;;3.40;99.90;;;;;;5132728;28;20442;-46
2022/11/17 04:23:06;;;;;;;12.13;10.40;;;3.40;99.90;;;;;;5150674;28;20281;-46
2022/11/17 04:28:44;;;;;;;11.33;8.90;;;3.30;99.90;;;;;;5177494;28;20471;-47
2022/11/17 04:31:16;;;;;;;15.73;8.93;;;3.40;99.90;;;;;;5180969;28;20452;-46
2022/11/17 04:34:05;;;;;;;11.10;9.00;;;3.40;99.90;;;;;;5180385;28;20439;-49
2022/11/17 04:36:44;;;;;;;12.53;10.43;;;3.30;99.90;;;;;;5186234;28;20459;-47
2022/11/17 04:39:15;;;;;;;10.90;8.77;;;3.40;99.90;;;;;;5185529;28;20519;-47
2022/11/17 04:42:03;;;;;;;10.33;9.17;;;3.40;99.90;;;;;;5180218;28;20563;-47
2022/11/17 04:44:34;;;;;;;17.93;10.67;;;3.40;99.90;;;;;;5170029;28;20460;-46
2022/11/17 04:47:05;;;;;;;14.03;10.60;;;3.40;99.90;;;;;;5185288;28;20526;-49
2022/11/17 04:49:36;;;;;;;10.60;9.23;;;3.40;99.90;;;;;;5186040;28;20184;-49
2022/11/17 04:52:07;;;;;;;13.50;9.10;;;3.40;99.90;;;;;;5165145;28;20518;-47
2022/11/17 04:54:37;;;;;;;13.77;11.57;;;3.40;99.90;;;;;;5185469;28;20267;-48
2022/11/17 04:57:08;;;;;;;13.70;9.90;;;3.30;99.90;;;;;;5174733;28;20216;-48
2022/11/17 04:59:39;;;;;;;11.20;9.53;;;3.40;99.90;;;;;;5187984;28;20184;-48
2022/11/17 05:02:10;;;;;;;10.57;8.90;;;3.40;99.90;;;;;;5184764;28;20211;-46
2022/11/17 05:04:55;;;;;;;12.33;9.70;;;3.40;99.90;;;;;;5186948;28;20177;-46
2022/11/17 05:07:26;;;;;;;11.97;9.70;;;3.40;99.90;;;;;;5185317;28;20192;-49
2022/11/17 05:09:57;;;;;;;13.37;10.57;;;3.40;99.90;;;;;;5179808;28;20774;-48
2022/11/17 05:17:03;;;;;;;12.73;10.00;;;3.40;99.90;;;;;;5185344;28;20188;-47
2022/11/17 05:18:07;;;;;;;14.43;10.50;;;3.40;99.90;;;;;;5183989;28;20463;-48
2022/11/17 05:20:38;;;;;;;12.40;10.20;;;3.40;99.90;;;;;;5180982;28;20497;-53
2022/11/17 05:25:58;;;;;;;15.53;10.00;;;3.50;99.90;;;;;;5189754;28;20234;-49
2022/11/17 05:28:30;;;;;;;17.83;10.87;;;3.50;99.90;;;;;;5187786;28;20950;-49
2022/11/17 05:31:01;;;;;;;12.90;9.93;;;3.50;99.90;;;;;;5186338;28;20295;-50
2022/11/17 05:33:31;;;;;;;12.73;10.30;;;3.50;99.90;;;;;;5189373;28;20526;-48
2022/11/17 05:36:03;;;;;;;11.13;9.53;;;3.50;99.90;;;;;;5189260;28;20200;-47
2022/11/17 05:38:34;;;;;;;11.70;10.50;;;3.50;99.90;;;;;;5181502;28;20184;-50
2022/11/17 05:41:05;;;;;;;14.33;11.33;;;3.60;99.90;;;;;;5181947;28;20796;-48
2022/11/17 05:43:35;;;;;;;15.90;10.23;;;3.50;99.90;;;;;;5176974;28;20184;-51
2022/11/17 05:46:06;;;;;;;18.40;12.07;;;3.60;99.90;;;;;;5188404;28;20435;-48
2022/11/17 05:48:38;;;;;;;14.13;10.97;;;3.60;99.90;;;;;;5190097;28;20230;-47
2022/11/17 05:51:09;;;;;;;15.33;11.53;;;3.60;99.90;;;;;;5186059;28;20227;-47
2022/11/17 05:53:40;;;;;;;14.03;11.93;;;3.60;99.90;;;;;;5152052;28;20443;-48
2022/11/17 05:56:23;;;;;;;14.30;11.37;;;3.60;99.90;;;;;;5186185;28;20459;-49
2022/11/17 05:59:05;;;;;;;15.67;10.90;;;3.60;99.90;;;;;;5177159;28;20723;-48
2022/11/17 06:01:40;;;;;;;13.40;10.90;;;3.60;99.90;;;;;;5180440;28;20885;-52
2022/11/17 06:04:16;;;;;;;15.50;10.80;;;3.60;99.90;;;;;;5185181;28;20493;-47
2022/11/17 06:06:47;;;;;;;15.03;11.90;;;3.60;99.90;;;;;;5181303;28;20459;-47
2022/11/17 06:09:18;;;;;;;13.27;9.87;;;3.60;99.90;;;;;;5184933;28;20446;-46
2022/11/17 06:11:49;;;;;;;16.53;10.60;;;3.60;99.90;;;;;;5184289;28;20463;-48
2022/11/17 06:14:20;;;;;;;15.47;10.63;;;3.60;99.90;;;;;;5187614;28;20238;-47
2022/11/17 06:16:55;;;;;;;11.50;10.20;;;3.60;99.90;;;;;;5179907;28;20215;-47
2022/11/17 06:19:33;;;;;;;18.03;12.83;;;3.70;99.90;;;;;;5186909;28;20183;-47
2022/11/17 06:22:04;;;;;;;17.43;11.47;;;3.70;99.90;;;;;;5193789;28;20459;-48
2022/11/17 06:24:36;;;;;;;16.60;11.97;;;3.70;99.90;;;;;;5187822;28;20784;-47
2022/11/17 06:27:07;;;;;;;14.77;11.30;;;3.70;99.90;;;;;;5186623;28;20443;-47
2022/11/17 06:29:38;;;;;;;18.57;11.80;;;3.70;99.90;;;;;;5185149;28;20445;-47
2022/11/17 06:32:09;;;;;;;15.03;12.13;;;3.80;99.90;;;;;;5186060;28;20998;-47
2022/11/17 06:34:42;;;;;;;14.90;11.67;;;3.80;99.90;;;;;;5190369;28;20177;-51
2022/11/17 06:37:13;;;;;;;16.90;12.30;;;3.80;99.90;;;;;;5182247;28;21044;-47
2022/11/17 06:39:43;;;;;;;15.90;12.00;;;3.80;99.90;;;;;;5183248;28;20423;-48
2022/11/17 06:42:14;;;;;;;15.13;12.33;;;3.80;99.90;;;;;;5187687;28;20211;-46
2022/11/17 06:44:45;;;;;;;15.93;12.67;;;3.80;99.90;;;;;;5187072;28;20671;-47
2022/11/17 06:47:15;;;;;;;14.53;11.13;;;3.80;99.90;;;;;;5186706;28;20203;-52
2022/11/17 06:49:46;;;;;;;14.37;11.70;;;3.90;99.90;;;;;;5185199;28;20227;-47
2022/11/17 06:52:17;;;;;;;16.80;12.37;;;3.90;99.90;;;;;;5191438;28;20568;-46
2022/11/17 06:54:47;;;;;;;15.20;10.90;;;3.90;99.90;;;;;;5187856;28;20192;-48
2022/11/17 06:57:18;;;;;;;14.37;11.43;;;3.90;99.90;;;;;;5190769;28;20631;-48
2022/11/17 06:59:51;;;;;;;19.40;12.80;;;4.00;99.90;;;;;;5182049;28;20235;-49
2022/11/17 07:02:22;;;;;;;15.07;11.30;;;4.00;99.90;;;;;;5177712;28;20261;-48
2022/11/17 07:04:52;;;;;;;14.40;11.70;;;4.00;99.90;;;;;;5192715;28;20526;-47
2022/11/17 07:07:23;;;;;;;13.57;11.60;;;4.00;99.90;;;;;;5185159;28;20177;-46
2022/11/17 07:09:54;;;;;;;15.20;11.13;;;4.00;99.90;;;;;;5187827;28;20180;-47
2022/11/17 07:12:24;;;;;;;15.83;11.60;;;4.10;99.90;;;;;;5187391;28;20231;-47
2022/11/17 07:14:55;;;;;;;15.10;10.90;;;4.00;99.90;;;;;;5191345;28;20287;-47
2022/11/17 07:17:26;;;;;;;13.00;11.27;;;4.10;99.90;;;;;;5190101;28;20580;-48
2022/11/17 07:19:57;;;;;;;15.07;11.47;;;4.20;99.90;;;;;;5181623;28;20657;-46
2022/11/17 07:22:27;;;;;;;17.30;11.30;;;4.10;99.90;;;;;;5182930;28;20205;-48
2022/11/17 07:24:58;;;;;;;13.30;10.83;;;4.10;99.90;;;;;;5187810;28;20234;-50
2022/11/17 07:27:29;;;;;;;17.00;10.90;;;4.10;99.90;;;;;;5186685;28;20230;-48
2022/11/17 07:30:00;;;;;;;17.03;10.30;;;4.10;99.90;;;;;;5183557;28;20188;-47
2022/11/17 07:32:35;;;;;;;13.80;10.40;;;4.20;99.90;;;;;;5187936;28;20462;-47
2022/11/17 07:35:06;;;;;;;11.90;10.20;;;4.20;99.90;;;;;;5182545;28;20443;-47
2022/11/17 07:37:37;;;;;;;20.17;11.30;;;4.20;99.90;;;;;;5183788;28;20461;-47
2022/11/17 07:40:08;;;;;;;13.03;10.40;;;4.20;99.90;;;;;;5185159;28;20416;-46
2022/11/17 07:42:39;;;;;;;13.33;10.43;;;4.20;99.90;;;;;;5189689;28;20207;-48
2022/11/17 07:45:10;;;;;;;18.03;9.83;;;4.20;99.90;;;;;;5189931;28;20957;-48
2022/11/17 07:47:40;;;;;;;10.50;9.40;;;4.20;99.90;;;;;;5187343;28;20184;-53
2022/11/17 07:50:11;;;;;;;12.47;10.23;;;4.20;99.90;;;;;;5185133;28;20185;-47
2022/11/17 07:52:42;;;;;;;14.63;9.67;;;4.20;99.90;;;;;;5186150;28;20200;-49
2022/11/17 07:55:12;;;;;;;17.47;9.93;;;4.20;99.90;;;;;;5193515;28;20179;-46
2022/11/17 07:57:43;;;;;;;14.10;10.00;;;4.20;99.90;;;;;;5182753;28;20213;-49
2022/11/17 08:00:14;;;;;;;13.83;9.77;;;4.30;99.90;;;;;;5188745;28;20282;-47
2022/11/17 08:02:45;;;;;;;12.60;9.47;;;4.30;99.90;;;;;;5194237;28;20455;-46
2022/11/17 08:05:17;;;;;;;14.23;9.70;;;4.30;99.90;;;;;;5182396;28;20446;-48
2022/11/17 08:07:55;;;;;;;12.83;9.30;;;4.40;99.90;;;;;;5183757;28;20196;-46
2022/11/17 08:10:30;;;;;;;13.20;10.03;;;4.30;99.90;;;;;;5184922;28;20547;-47
2022/11/17 08:13:00;;;;;;;13.03;9.63;;;4.30;99.90;;;;;;5187514;28;20521;-47
2022/11/17 08:15:31;;;;;;;16.10;10.13;;;4.30;99.90;;;;;;5188413;28;20846;-47
2022/11/17 08:18:02;;;;;;;13.00;9.27;;;4.40;99.90;;;;;;5190796;28;20269;-50
2022/11/17 08:20:33;;;;;;;11.73;8.33;;;4.40;99.90;;;;;;5187355;28;20176;-49
2022/11/17 08:23:03;;;;;;;11.30;9.30;;;4.40;99.90;;;;;;5188711;28;20449;-48
2022/11/17 08:25:34;;;;;;;13.00;9.17;;;4.40;99.90;;;;;;5185923;28;20185;-46
2022/11/17 08:28:05;;;;;;;13.70;9.17;;;4.40;99.90;;;;;;5187422;28;20646;-46
2022/11/17 08:30:35;;;;;;;11.30;9.50;;;4.40;99.90;;;;;;5180430;28;20235;-46
2022/11/17 08:33:06;;;;;;;10.40;8.60;;;4.40;99.90;;;;;;5187938;28;20239;-47
2022/11/17 08:35:37;;;;;;;13.27;9.10;;;4.50;99.90;;;;;;5190775;28;20185;-48
2022/11/17 08:38:10;;;;;;;13.00;9.33;;;4.40;99.90;;;;;;5191261;28;20219;-46
2022/11/17 08:40:41;;;;;;;17.03;9.23;;;4.40;99.90;;;;;;5197248;28;20173;-47
2022/11/17 08:43:12;;;;;;;12.30;9.87;;;4.50;99.90;;;;;;5199964;28;20422;-48
2022/11/17 08:45:43;;;;;;;25.30;11.17;;;4.50;99.90;;;;;;5191045;28;20415;-46
2022/11/17 08:48:13;;;;;;;19.27;10.60;;;4.40;99.90;;;;;;5187013;28;20185;-46
2022/11/17 08:50:44;;;;;;;15.77;11.47;;;4.50;99.90;;;;;;5184593;28;20184;-46
2022/11/17 08:53:19;;;;;;;12.80;10.00;;;4.50;99.90;;;;;;5184688;28;20197;-46
2022/11/17 08:55:51;;;;;;;18.87;10.57;;;4.50;99.90;;;;;;5190397;28;20435;-47
2022/11/17 08:58:21;;;;;;;15.07;10.50;;;4.50;99.90;;;;;;5188969;28;20454;-47
2022/11/17 09:00:52;;;;;;;15.57;11.37;;;4.50;99.90;;;;;;5189801;28;20446;-47
2022/11/17 09:03:22;;;;;;;14.80;10.10;;;4.50;99.90;;;;;;5187626;28;20180;-48
2022/11/17 09:05:53;;;;;;;15.87;9.60;;;4.50;99.90;;;;;;5179365;28;20192;-48
2022/11/17 09:08:24;;;;;;;17.97;10.90;;;4.50;99.90;;;;;;5182512;28;20204;-47
2022/11/17 09:10:54;;;;;;;14.33;9.63;;;4.60;99.90;;;;;;5183011;28;20220;-50
2022/11/17 09:13:25;;;;;;;12.87;10.40;;;4.50;99.90;;;;;;5193267;28;20746;-48
2022/11/17 09:16:03;;;;;;;15.20;10.70;;;4.60;99.90;;;;;;5199005;28;20192;-50
2022/11/17 09:18:35;;;;;;;14.40;10.73;;;4.60;99.90;;;;;;5191036;28;20184;-46
2022/11/17 09:21:08;;;;;;;17.20;11.03;;;4.60;99.90;;;;;;5187416;28;20537;-48
2022/11/17 09:23:39;;;;;;;18.30;10.83;;;4.50;99.90;;;;;;5190643;28;20483;-47
2022/11/17 09:26:12;;;;;;;20.93;11.17;;;4.50;99.90;;;;;;5183973;28;20450;-49
2022/11/17 09:28:44;;;;;;;14.03;11.50;;;4.60;99.90;;;;;;5173011;28;20443;-47
2022/11/17 09:31:16;;;;;;;16.90;11.93;;;4.50;99.90;;;;;;5201718;28;20792;-48
2022/11/17 09:33:47;;;;;;;15.17;10.67;;;4.50;99.90;;;;;;5193637;28;20516;-47
2022/11/17 09:36:18;;;;;;;16.53;10.70;;;4.50;99.90;;;;;;5183037;28;20467;-47
2022/11/17 09:38:49;;;;;;;14.47;11.23;;;4.60;99.90;;;;;;5205129;28;20227;-49
2022/11/17 09:41:25;;;;;;;13.10;10.33;;;4.60;99.90;;;;;;5194855;28;20199;-48
2022/11/17 09:44:14;;;;;;;18.03;12.50;;;4.60;99.90;;;;;;5200693;28;20844;-49
2022/11/17 09:46:56;;;;;;;17.27;11.57;;;4.60;99.90;;;;;;5175368;28;20810;-49
2022/11/17 09:49:39;;;;;;;18.80;11.27;;;4.60;99.90;;;;;;5186462;28;20447;-47
2022/11/17 09:52:24;;;;;;;17.00;11.17;;;4.50;99.90;;;;;;5176101;28;20461;-49
2022/11/17 09:55:18;;;;;;;15.70;10.63;;;4.60;99.90;;;;;;5194660;28;20527;-47
2022/11/17 09:58:04;;;;;;;18.67;11.57;;;4.60;99.90;;;;;;5194954;28;20483;-49
2022/11/17 10:00:37;;;;;;;19.30;12.90;;;4.50;99.90;;;;;;5191439;28;20440;-49
2022/11/17 10:03:21;;;;;;;15.30;10.80;;;4.60;99.90;;;;;;5183650;28;20438;-47
2022/11/17 10:05:52;;;;;;;14.27;10.63;;;4.60;99.90;;;;;;5175412;28;20443;-47
2022/11/17 10:08:29;;;;;;;17.23;10.93;;;4.50;99.90;;;;;;5181401;28;20438;-47
2022/11/17 10:11:30;;;;;;;14.90;11.97;;;4.60;99.90;;;;;;5191970;28;20550;-48
2022/11/17 10:13:50;;;;;;;15.87;11.30;;;4.60;99.90;;;;;;5185899;28;20475;-47
2022/11/17 10:16:21;;;;;;;16.80;11.53;;;4.60;99.90;;;;;;5191838;28;20492;-49
2022/11/17 10:18:52;;;;;;;18.60;12.30;;;4.60;99.90;;;;;;5184992;28;20269;-47
2022/11/17 10:21:22;;;;;;;18.17;11.60;;;4.60;99.90;;;;;;5188191;28;20697;-48
2022/11/17 10:23:58;;;;;;;18.50;11.87;;;4.60;99.90;;;;;;5181248;28;20194;-50
2022/11/17 10:26:46;;;;;;;16.03;11.73;;;4.70;99.90;;;;;;5188892;28;20786;-47
2022/11/17 10:29:22;;;;;;;14.43;10.73;;;4.70;99.90;;;;;;5190938;28;20443;-50
2022/11/17 10:31:53;;;;;;;19.90;12.37;;;4.70;99.90;;;;;;5177342;28;20485;-48
2022/11/17 10:34:36;;;;;;;17.47;10.90;;;4.80;99.90;;;;;;5181775;28;20427;-49
2022/11/17 10:37:12;;;;;;;16.90;11.87;;;4.80;99.90;;;;;;5199722;28;20976;-50
2022/11/17 10:39:43;;;;;;;16.23;10.73;;;4.70;99.90;;;;;;5187298;28;20436;-47
2022/11/17 10:42:28;;;;;;;18.63;11.40;;;4.80;99.90;;;;;;5197658;28;20544;-48
2022/11/17 10:45:00;;;;;;;19.20;10.97;;;4.80;99.90;;;;;;5177084;28;20677;-48
2022/11/17 10:47:37;;;;;;;19.73;11.60;;;4.70;99.90;;;;;;5185624;28;20434;-48
2022/11/17 10:50:24;;;;;;;17.17;11.40;;;4.70;99.90;;;;;;5186488;28;20504;-50
2022/11/17 10:53:23;;;;;;;14.20;11.50;;;4.70;99.90;;;;;;5183529;28;20969;-48
2022/11/17 10:56:01;;;;;;;16.57;11.77;;;4.80;99.90;;;;;;5181635;28;20888;-48
2022/11/17 10:58:58;;;;;;;27.40;12.27;;;4.80;99.90;;;;;;5200722;28;20457;-49
2022/11/17 11:01:36;;;;;;;13.93;10.30;;;4.70;99.90;;;;;;5177955;28;20500;-50
2022/11/17 11:04:29;;;;;;;16.20;10.17;;;4.80;99.90;;;;;;5184009;28;20439;-48
2022/11/17 11:07:13;;;;;;;15.70;11.30;;;4.80;99.90;;;;;;5187863;28;20461;-48
2022/11/17 11:10:08;;;;;;;13.97;10.63;;;4.80;99.90;;;;;;5177347;28;20447;-48
2022/11/17 11:12:53;;;;;;;14.47;9.90;;;4.80;99.90;;;;;;5190219;28;20541;-47
2022/11/17 11:15:28;;;;;;;16.10;10.80;;;4.80;99.90;;;;;;5198837;28;20454;-48
2022/11/17 11:17:58;;;;;;;16.90;9.80;;;4.80;99.90;;;;;;5190503;28;20475;-49
2022/11/17 11:20:54;;;;;;;13.07;9.83;;;4.90;99.90;;;;;;5189931;28;20438;-50
2022/11/17 11:23:43;;;;;;;12.57;9.57;;;4.80;99.90;;;;;;5197490;28;20182;-50
2022/11/17 11:26:29;;;;;;;12.03;8.40;;;4.80;99.90;;;;;;5181071;28;20430;-49
2022/11/17 11:29:28;;;;;;;13.27;9.03;;;4.80;99.90;;;;;;5198654;28;20413;-48
2022/11/17 11:32:05;;;;;;;13.10;9.60;;;4.80;99.90;;;;;;5201516;28;20450;-48
2022/11/17 11:34:45;;;;;;;11.07;9.13;;;4.80;99.90;;;;;;5186484;28;20483;-48
2022/11/17 11:37:15;;;;;;;13.73;9.90;;;4.90;99.90;;;;;;5185668;28;20826;-49
2022/11/17 11:39:54;;;;;;;12.27;10.27;;;4.90;99.90;;;;;;5191469;28;20439;-51
2022/11/17 11:42:53;;;;;;;13.47;9.33;;;4.90;99.90;;;;;;5193933;28;20242;-48
2022/11/17 11:45:33;;;;;;;12.47;9.27;;;4.90;99.90;;;;;;5203629;28;20891;-48
2022/11/17 11:48:21;;;;;;;17.03;10.20;;;4.90;99.90;;;;;;5195870;28;20442;-48
2022/11/17 11:51:04;;;;;;;18.77;9.50;;;4.80;99.90;;;;;;5182655;28;20519;-49
2022/11/17 11:53:56;;;;;;;12.10;9.03;;;4.80;99.90;;;;;;5205809;28;20506;-48
2022/11/17 11:56:31;;;;;;;13.47;9.43;;;4.80;99.90;;;;;;5185923;28;20973;-50
2022/11/17 11:59:50;;;;;;;16.37;10.17;;;4.80;99.90;;;;;;5184661;28;20477;-49
2022/11/17 12:02:31;;;;;;;12.97;10.50;;;4.80;99.90;;;;;;5185118;28;20459;-49
2022/11/17 12:05:26;;;;;;;15.63;9.77;;;4.80;99.90;;;;;;5175452;28;20510;-49
2022/11/17 12:08:40;;;;;;;11.30;8.33;;;4.80;99.90;;;;;;5176871;28;20411;-49
2022/11/17 12:14:05;;;;;;;12.47;10.40;;;4.90;99.90;;;;;;5112390;29;20478;-50
2022/11/17 12:16:38;;;;;;;13.40;10.07;;;4.90;99.90;;;;;;5166118;28;20827;-47
2022/11/17 12:19:56;;;;;;;16.83;10.67;;;4.90;99.90;;;;;;5198426;28;20887;-51
2022/11/17 12:22:31;;;;;;;16.87;10.50;;;4.90;99.90;;;;;;5137265;28;20502;-50
2022/11/17 12:25:01;;;;;;;17.27;10.10;;;5.00;99.90;;;;;;5114022;28;20464;-49
2022/11/17 12:27:35;;;;;;;13.90;9.50;;;4.90;99.90;;;;;;5173097;28;20469;-53
2022/11/17 12:30:31;;;;;;;12.77;10.17;;;4.90;99.90;;;;;;5193730;28;20648;-51
2022/11/17 12:33:07;;;;;;;11.03;9.07;;;4.90;99.90;;;;;;5181591;28;20432;-48
2022/11/17 12:35:39;;;;;;;14.10;9.93;;;4.90;99.90;;;;;;5173578;28;20433;-48
2022/11/17 12:38:16;;;;;;;11.00;8.43;;;4.90;99.90;;;;;;5184359;28;20476;-52
2022/11/17 12:40:48;;;;;;;13.57;9.77;;;4.90;99.90;;;;;;5171224;28;20432;-49
2022/11/17 12:43:22;;;;;;;18.20;10.90;;;4.90;99.90;;;;;;5177149;28;20433;-49
2022/11/17 12:45:52;;;;;;;16.87;10.10;;;4.90;99.90;;;;;;5188842;28;20437;-48
2022/11/17 12:48:37;;;;;;;13.17;9.97;;;4.90;99.90;;;;;;5187444;28;20438;-48
2022/11/17 12:51:25;;;;;;;20.20;8.87;;;4.90;99.90;;;;;;5172478;28;20213;-49
2022/11/17 12:54:11;;;;;;;13.20;9.27;;;4.90;99.90;;;;;;5188526;28;20798;-47
2022/11/17 12:56:56;;;;;;;12.20;9.27;;;4.90;99.90;;;;;;5193596;28;20550;-47
2022/11/17 12:59:50;;;;;;;9.77;8.77;;;4.90;99.90;;;;;;5197683;28;20446;-48
2022/11/17 13:02:44;;;;;;;10.53;9.30;;;4.90;99.90;;;;;;5181299;28;20549;-48
2022/11/17 13:05:20;;;;;;;9.37;8.43;;;4.90;99.90;;;;;;5156421;28;20424;-49
2022/11/17 13:08:17;;;;;;;13.13;9.20;;;4.80;99.90;;;;;;5179448;28;20467;-48
2022/11/17 13:10:49;;;;;;;9.90;8.90;;;4.80;99.90;;;;;;5181646;28;20447;-48
2022/11/17 13:13:22;;;;;;;15.73;9.73;;;4.80;99.90;;;;;;5184482;28;20435;-50
2022/11/17 13:15:57;;;;;;;11.93;9.43;;;4.80;99.90;;;;;;5190867;28;20445;-48
2022/11/17 13:18:40;;;;;;;11.77;9.30;;;4.80;99.90;;;;;;5185082;28;20518;-50
2022/11/17 13:21:27;;;;;;;13.67;9.20;;;4.90;99.90;;;;;;5182126;28;20465;-49
2022/11/17 13:23:59;;;;;;;12.53;9.17;;;4.80;99.90;;;;;;5172491;28;20429;-48
2022/11/17 13:26:36;;;;;;;13.00;9.23;;;4.80;99.90;;;;;;5180395;28;20440;-51
2022/11/17 13:29:17;;;;;;;17.00;9.07;;;4.80;99.90;;;;;;5187670;28;20436;-51
2022/11/17 13:31:48;;;;;;;9.43;8.50;;;4.80;99.90;;;;;;5194200;28;20450;-50
2022/11/17 13:34:22;;;;;;;10.67;8.50;;;4.80;99.90;;;;;;5198786;28;20438;-48
2022/11/17 13:36:58;;;;;;;9.73;8.63;;;4.80;99.90;;;;;;5186433;28;20206;-49
2022/11/17 13:39:29;;;;;;;14.47;9.87;;;4.80;99.90;;;;;;5185639;28;20961;-48
2022/11/17 13:42:01;;;;;;;12.03;8.90;;;4.80;99.90;;;;;;5181314;28;20459;-49
2022/11/17 13:44:32;;;;;;;11.10;9.90;;;4.80;99.90;;;;;;5185878;28;20483;-49
2022/11/17 13:47:46;;;;;;;12.80;9.40;;;4.80;99.90;;;;;;5189599;28;20507;-50
2022/11/17 13:50:26;;;;;;;13.07;9.90;;;4.80;99.90;;;;;;5185460;28;20923;-49
2022/11/17 13:53:25;;;;;;;17.77;10.87;;;4.80;99.90;;;;;;5181800;28;20446;-51
2022/11/17 13:55:56;;;;;;;10.87;9.20;;;4.80;99.90;;;;;;5203769;28;20837;-49